Arrowhead, Minnesota
Current Conditions -  °F | °C
As of 8:16 AM on Saturday 25 Oct 2014 (Local Time) from KCOQ Reporting Station
Clear Clear  
Wind Chill: 40°   Ceiling: Unl
Heat Index: 46°   Visibility: 10mi
Dew Point: 30°   Wind: 14mph
Humidity: 53%   Direction: 290°WNW
Pressure: 29.92"   Gusts: 20mph
Location:  46.8211°N, 92.6871°W
Report Text: KCOQ 251316Z AUTO 29012G17KT 10SM CLR 08/M01 A2992 RMK AO2
Loading
Personal Weather Stations






























Interactive Weather Map
Tropical Storm Tracking
New forecast layout! Learn more

10-Day Weather Forecast

Advertisements
Track Severe Weather on mobile